Manzaneda, Spain
Current Conditions -  °F | °C
As of 7:00 PM on Monday 22 Dec 2014 (Local Time) from LEVX Reporting Station
Clear Clear  
Wind Chill:   Ceiling: Unl
Heat Index:   Visibility: 6mi
Dew Point:   Wind: 2mph
Humidity: 87%   Direction: NA
Pressure: 30.36"   Gusts: NA
Location:  42.31°N, 7.24°W
Report Text: LEVX 221800Z VRB02KT CAVOK 08/06 Q1028 NOSIG
Loading
Personal Weather Stations






























Interactive Weather Map New forecast layout! Learn more

10-Day Weather Forecast

Advertisements
Track Severe Weather on mobile